sensor_id;sensor_type;location;lat;lon;timestamp;P1;durP1;ratioP1;P2;durP2;ratioP2
1370;SDS011;14306;49.942;11.570;2023-05-07T00:00:22;6.20;;;4.90;;
1370;SDS011;14306;49.942;11.570;2023-05-07T00:02:55;11.43;;;5.50;;
1370;SDS011;14306;49.942;11.570;2023-05-07T00:05:30;8.10;;;5.17;;
1370;SDS011;14306;49.942;11.570;2023-05-07T00:07:59;8.63;;;5.50;;
1370;SDS011;14306;49.942;11.570;2023-05-07T00:10:28;8.13;;;5.20;;
1370;SDS011;14306;49.942;11.570;2023-05-07T00:13:02;8.73;;;5.33;;
1370;SDS011;14306;49.942;11.570;2023-05-07T00:15:34;7.33;;;5.80;;
1370;SDS011;14306;49.942;11.570;2023-05-07T00:18:03;7.50;;;5.67;;
1370;SDS011;14306;49.942;11.570;2023-05-07T00:20:34;14.63;;;5.53;;
1370;SDS011;14306;49.942;11.570;2023-05-07T00:23:09;8.13;;;5.60;;
1370;SDS011;14306;49.942;11.570;2023-05-07T00:25:43;17.13;;;9.87;;
1370;SDS011;14306;49.942;11.570;2023-05-07T00:31:09;9.90;;;6.43;;
1370;SDS011;14306;49.942;11.570;2023-05-07T00:33:39;7.27;;;6.57;;
1370;SDS011;14306;49.942;11.570;2023-05-07T00:36:13;9.87;;;6.90;;
1370;SDS011;14306;49.942;11.570;2023-05-07T00:38:43;9.53;;;6.67;;
1370;SDS011;14306;49.942;11.570;2023-05-07T00:41:12;7.60;;;6.47;;
1370;SDS011;14306;49.942;11.570;2023-05-07T00:43:42;7.77;;;6.33;;
1370;SDS011;14306;49.942;11.570;2023-05-07T00:46:11;10.00;;;7.67;;
1370;SDS011;14306;49.942;11.570;2023-05-07T00:48:46;9.30;;;6.70;;
1370;SDS011;14306;49.942;11.570;2023-05-07T00:51:16;10.83;;;8.00;;
1370;SDS011;14306;49.942;11.570;2023-05-07T00:53:54;8.27;;;6.33;;
1370;SDS011;14306;49.942;11.570;2023-05-07T00:56:23;9.90;;;7.07;;
1370;SDS011;14306;49.942;11.570;2023-05-07T00:58:56;9.27;;;7.33;;
1370;SDS011;14306;49.942;11.570;2023-05-07T01:01:30;8.63;;;6.53;;
1370;SDS011;14306;49.942;11.570;2023-05-07T01:04:01;7.30;;;6.47;;
1370;SDS011;14306;49.942;11.570;2023-05-07T01:06:32;9.57;;;7.27;;
1370;SDS011;14306;49.942;11.570;2023-05-07T01:09:19;11.70;;;6.40;;
1370;SDS011;14306;49.942;11.570;2023-05-07T01:11:50;8.80;;;6.23;;
1370;SDS011;14306;49.942;11.570;2023-05-07T01:14:32;10.33;;;7.37;;
1370;SDS011;14306;49.942;11.570;2023-05-07T01:17:04;7.93;;;7.10;;
1370;SDS011;14306;49.942;11.570;2023-05-07T01:19:37;8.97;;;6.30;;
1370;SDS011;14306;49.942;11.570;2023-05-07T01:22:08;11.70;;;7.63;;
1370;SDS011;14306;49.942;11.570;2023-05-07T01:24:42;11.40;;;7.23;;
1370;SDS011;14306;49.942;11.570;2023-05-07T01:27:17;9.60;;;5.93;;
1370;SDS011;14306;49.942;11.570;2023-05-07T01:29:46;5.87;;;5.27;;
1370;SDS011;14306;49.942;11.570;2023-05-07T01:32:21;7.10;;;5.43;;
1370;SDS011;14306;49.942;11.570;2023-05-07T01:34:55;7.03;;;5.00;;
1370;SDS011;14306;49.942;11.570;2023-05-07T01:37:30;7.17;;;5.30;;
1370;SDS011;14306;49.942;11.570;2023-05-07T01:40:03;11.57;;;7.17;;
1370;SDS011;14306;49.942;11.570;2023-05-07T01:42:36;12.20;;;8.60;;
1370;SDS011;14306;49.942;11.570;2023-05-07T01:45:07;12.17;;;6.50;;
1370;SDS011;14306;49.942;11.570;2023-05-07T01:47:37;14.40;;;7.57;;
1370;SDS011;14306;49.942;11.570;2023-05-07T01:50:09;12.17;;;7.80;;
1370;SDS011;14306;49.942;11.570;2023-05-07T01:52:40;8.60;;;6.00;;
1370;SDS011;14306;49.942;11.570;2023-05-07T01:55:10;14.53;;;8.30;;
1370;SDS011;14306;49.942;11.570;2023-05-07T01:57:42;11.53;;;8.20;;
1370;SDS011;14306;49.942;11.570;2023-05-07T02:00:11;9.07;;;7.00;;
1370;SDS011;14306;49.942;11.570;2023-05-07T02:02:45;14.03;;;8.63;;
1370;SDS011;14306;49.942;11.570;2023-05-07T02:05:19;13.80;;;8.70;;
1370;SDS011;14306;49.942;11.570;2023-05-07T02:07:51;10.57;;;8.20;;
1370;SDS011;14306;49.942;11.570;2023-05-07T02:10:28;10.83;;;7.40;;
1370;SDS011;14306;49.942;11.570;2023-05-07T02:12:58;7.93;;;6.63;;
1370;SDS011;14306;49.942;11.570;2023-05-07T02:15:34;11.80;;;8.17;;
1370;SDS011;14306;49.942;11.570;2023-05-07T02:18:05;11.23;;;8.33;;
1370;SDS011;14306;49.942;11.570;2023-05-07T02:20:36;9.03;;;6.87;;
1370;SDS011;14306;49.942;11.570;2023-05-07T02:23:17;8.17;;;6.87;;
1370;SDS011;14306;49.942;11.570;2023-05-07T02:25:47;10.77;;;7.00;;
1370;SDS011;14306;49.942;11.570;2023-05-07T02:28:19;11.60;;;7.60;;
1370;SDS011;14306;49.942;11.570;2023-05-07T02:30:52;13.30;;;8.10;;
1370;SDS011;14306;49.942;11.570;2023-05-07T02:33:26;10.20;;;8.00;;
1370;SDS011;14306;49.942;11.570;2023-05-07T02:35:54;10.30;;;7.30;;
1370;SDS011;14306;49.942;11.570;2023-05-07T02:38:26;9.20;;;6.97;;
1370;SDS011;14306;49.942;11.570;2023-05-07T02:40:57;9.80;;;7.23;;
1370;SDS011;14306;49.942;11.570;2023-05-07T02:43:27;8.17;;;6.80;;
1370;SDS011;14306;49.942;11.570;2023-05-07T02:46:04;8.53;;;6.93;;
1370;SDS011;14306;49.942;11.570;2023-05-07T02:48:44;12.57;;;7.40;;
1370;SDS011;14306;49.942;11.570;2023-05-07T02:51:19;13.30;;;8.50;;
1370;SDS011;14306;49.942;11.570;2023-05-07T02:53:51;14.07;;;8.97;;
1370;SDS011;14306;49.942;11.570;2023-05-07T02:56:22;10.10;;;7.40;;
1370;SDS011;14306;49.942;11.570;2023-05-07T02:58:51;13.63;;;8.87;;
1370;SDS011;14306;49.942;11.570;2023-05-07T03:01:22;8.77;;;7.87;;
1370;SDS011;14306;49.942;11.570;2023-05-07T03:03:54;9.77;;;7.00;;
1370;SDS011;14306;49.942;11.570;2023-05-07T03:06:23;11.40;;;7.67;;
1370;SDS011;14306;49.942;11.570;2023-05-07T03:08:53;8.40;;;7.50;;
1370;SDS011;14306;49.942;11.570;2023-05-07T03:11:24;9.40;;;7.97;;
1370;SDS011;14306;49.942;11.570;2023-05-07T03:13:56;17.93;;;7.40;;
1370;SDS011;14306;49.942;11.570;2023-05-07T03:16:27;8.90;;;8.00;;
1370;SDS011;14306;49.942;11.570;2023-05-07T03:18:58;11.13;;;8.07;;
1370;SDS011;14306;49.942;11.570;2023-05-07T03:21:28;7.97;;;7.17;;
1370;SDS011;14306;49.942;11.570;2023-05-07T03:24:05;12.47;;;8.70;;
1370;SDS011;14306;49.942;11.570;2023-05-07T03:26:36;11.90;;;9.37;;
1370;SDS011;14306;49.942;11.570;2023-05-07T03:29:05;13.37;;;9.50;;
1370;SDS011;14306;49.942;11.570;2023-05-07T03:31:37;16.73;;;7.90;;
1370;SDS011;14306;49.942;11.570;2023-05-07T03:34:10;10.93;;;8.30;;
1370;SDS011;14306;49.942;11.570;2023-05-07T03:36:45;11.27;;;8.07;;
1370;SDS011;14306;49.942;11.570;2023-05-07T03:39:14;12.00;;;9.07;;
1370;SDS011;14306;49.942;11.570;2023-05-07T03:41:44;12.57;;;9.80;;
1370;SDS011;14306;49.942;11.570;2023-05-07T03:44:15;12.13;;;8.70;;
1370;SDS011;14306;49.942;11.570;2023-05-07T03:46:44;11.33;;;9.90;;
1370;SDS011;14306;49.942;11.570;2023-05-07T03:49:14;10.93;;;8.90;;
1370;SDS011;14306;49.942;11.570;2023-05-07T03:51:43;11.27;;;8.20;;
1370;SDS011;14306;49.942;11.570;2023-05-07T03:54:12;11.40;;;9.10;;
1370;SDS011;14306;49.942;11.570;2023-05-07T03:56:42;11.40;;;9.43;;
1370;SDS011;14306;49.942;11.570;2023-05-07T03:59:13;20.67;;;12.57;;
1370;SDS011;14306;49.942;11.570;2023-05-07T04:01:44;13.47;;;11.47;;
1370;SDS011;14306;49.942;11.570;2023-05-07T04:04:17;14.67;;;11.93;;
1370;SDS011;14306;49.942;11.570;2023-05-07T04:06:47;18.77;;;12.77;;
1370;SDS011;14306;49.942;11.570;2023-05-07T04:09:16;11.40;;;9.50;;
1370;SDS011;14306;49.942;11.570;2023-05-07T04:11:44;10.20;;;8.43;;
1370;SDS011;14306;49.942;11.570;2023-05-07T04:14:15;14.90;;;9.30;;
1370;SDS011;14306;49.942;11.570;2023-05-07T04:16:43;10.63;;;8.50;;
1370;SDS011;14306;49.942;11.570;2023-05-07T04:19:13;12.37;;;7.17;;
1370;SDS011;14306;49.942;11.570;2023-05-07T04:21:42;8.40;;;6.97;;
1370;SDS011;14306;49.942;11.570;2023-05-07T04:24:14;7.80;;;5.30;;
1370;SDS011;14306;49.942;11.570;2023-05-07T04:26:43;6.00;;;5.37;;
1370;SDS011;14306;49.942;11.570;2023-05-07T04:29:16;6.33;;;5.73;;
1370;SDS011;14306;49.942;11.570;2023-05-07T04:31:54;8.00;;;5.70;;
1370;SDS011;14306;49.942;11.570;2023-05-07T04:34:47;6.40;;;5.30;;
1370;SDS011;14306;49.942;11.570;2023-05-07T04:37:21;9.37;;;5.47;;
1370;SDS011;14306;49.942;11.570;2023-05-07T04:39:55;12.00;;;6.37;;
1370;SDS011;14306;49.942;11.570;2023-05-07T04:42:29;5.13;;;4.60;;
1370;SDS011;14306;49.942;11.570;2023-05-07T04:45:01;7.47;;;5.50;;
1370;SDS011;14306;49.942;11.570;2023-05-07T04:47:49;6.33;;;5.30;;
1370;SDS011;14306;49.942;11.570;2023-05-07T04:50:29;7.07;;;6.33;;
1370;SDS011;14306;49.942;11.570;2023-05-07T04:53:08;7.20;;;6.50;;
1370;SDS011;14306;49.942;11.570;2023-05-07T04:55:38;9.30;;;8.33;;
1370;SDS011;14306;49.942;11.570;2023-05-07T04:58:11;9.47;;;6.67;;
1370;SDS011;14306;49.942;11.570;2023-05-07T05:00:43;10.83;;;7.50;;
1370;SDS011;14306;49.942;11.570;2023-05-07T05:03:20;7.60;;;6.60;;
1370;SDS011;14306;49.942;11.570;2023-05-07T05:06:01;6.40;;;5.80;;
1370;SDS011;14306;49.942;11.570;2023-05-07T05:08:36;8.43;;;5.70;;
1370;SDS011;14306;49.942;11.570;2023-05-07T05:11:11;7.70;;;6.63;;
1370;SDS011;14306;49.942;11.570;2023-05-07T05:13:43;7.20;;;6.50;;
1370;SDS011;14306;49.942;11.570;2023-05-07T05:16:20;7.67;;;5.97;;
1370;SDS011;14306;49.942;11.570;2023-05-07T05:18:52;6.27;;;5.67;;
1370;SDS011;14306;49.942;11.570;2023-05-07T05:21:21;7.53;;;6.37;;
1370;SDS011;14306;49.942;11.570;2023-05-07T05:23:52;7.23;;;6.37;;
1370;SDS011;14306;49.942;11.570;2023-05-07T05:26:24;6.90;;;6.20;;
1370;SDS011;14306;49.942;11.570;2023-05-07T05:28:53;7.30;;;6.20;;
1370;SDS011;14306;49.942;11.570;2023-05-07T05:31:23;9.20;;;7.00;;
1370;SDS011;14306;49.942;11.570;2023-05-07T05:33:56;6.50;;;5.90;;
1370;SDS011;14306;49.942;11.570;2023-05-07T05:36:27;8.93;;;6.50;;
1370;SDS011;14306;49.942;11.570;2023-05-07T05:38:57;6.43;;;5.83;;
1370;SDS011;14306;49.942;11.570;2023-05-07T05:41:26;7.20;;;6.60;;
1370;SDS011;14306;49.942;11.570;2023-05-07T05:44:00;7.87;;;7.07;;
1370;SDS011;14306;49.942;11.570;2023-05-07T05:46:31;5.93;;;5.40;;
1370;SDS011;14306;49.942;11.570;2023-05-07T05:49:02;8.23;;;6.70;;
1370;SDS011;14306;49.942;11.570;2023-05-07T05:51:31;9.00;;;8.00;;
1370;SDS011;14306;49.942;11.570;2023-05-07T05:54:01;8.27;;;7.47;;
1370;SDS011;14306;49.942;11.570;2023-05-07T05:56:31;8.60;;;7.70;;
1370;SDS011;14306;49.942;11.570;2023-05-07T05:58:59;8.90;;;7.60;;
1370;SDS011;14306;49.942;11.570;2023-05-07T06:01:28;9.63;;;7.40;;
1370;SDS011;14306;49.942;11.570;2023-05-07T06:03:59;7.73;;;6.93;;
1370;SDS011;14306;49.942;11.570;2023-05-07T06:06:30;8.03;;;7.00;;
1370;SDS011;14306;49.942;11.570;2023-05-07T06:08:59;9.30;;;8.40;;
1370;SDS011;14306;49.942;11.570;2023-05-07T06:11:31;10.97;;;7.90;;
1370;SDS011;14306;49.942;11.570;2023-05-07T06:14:00;8.10;;;7.30;;
1370;SDS011;14306;49.942;11.570;2023-05-07T06:16:31;8.50;;;7.70;;
1370;SDS011;14306;49.942;11.570;2023-05-07T06:19:00;8.70;;;7.20;;
1370;SDS011;14306;49.942;11.570;2023-05-07T06:21:29;9.83;;;7.50;;
1370;SDS011;14306;49.942;11.570;2023-05-07T06:23:58;8.27;;;7.50;;
1370;SDS011;14306;49.942;11.570;2023-05-07T06:26:26;8.50;;;7.30;;
1370;SDS011;14306;49.942;11.570;2023-05-07T06:28:55;7.77;;;7.00;;
1370;SDS011;14306;49.942;11.570;2023-05-07T06:31:28;7.47;;;6.80;;
1370;SDS011;14306;49.942;11.570;2023-05-07T06:33:59;9.27;;;7.90;;
1370;SDS011;14306;49.942;11.570;2023-05-07T06:36:28;7.30;;;6.57;;
1370;SDS011;14306;49.942;11.570;2023-05-07T06:38:57;10.67;;;7.37;;
1370;SDS011;14306;49.942;11.570;2023-05-07T06:41:28;7.63;;;6.60;;
1370;SDS011;14306;49.942;11.570;2023-05-07T06:43:57;7.80;;;6.90;;
1370;SDS011;14306;49.942;11.570;2023-05-07T06:46:26;8.00;;;7.20;;
1370;SDS011;14306;49.942;11.570;2023-05-07T06:48:56;7.80;;;7.10;;
1370;SDS011;14306;49.942;11.570;2023-05-07T06:51:29;8.50;;;7.23;;
1370;SDS011;14306;49.942;11.570;2023-05-07T06:53:58;7.90;;;6.00;;
1370;SDS011;14306;49.942;11.570;2023-05-07T06:56:26;7.20;;;6.57;;
1370;SDS011;14306;49.942;11.570;2023-05-07T06:58:55;7.27;;;6.50;;
1370;SDS011;14306;49.942;11.570;2023-05-07T07:01:25;8.63;;;7.83;;
1370;SDS011;14306;49.942;11.570;2023-05-07T07:03:56;13.47;;;7.90;;
1370;SDS011;14306;49.942;11.570;2023-05-07T07:06:26;7.87;;;7.07;;
1370;SDS011;14306;49.942;11.570;2023-05-07T07:08:56;7.97;;;7.17;;
1370;SDS011;14306;49.942;11.570;2023-05-07T07:11:25;9.47;;;7.30;;
1370;SDS011;14306;49.942;11.570;2023-05-07T07:13:56;8.17;;;7.17;;
1370;SDS011;14306;49.942;11.570;2023-05-07T07:16:27;7.77;;;6.97;;
1370;SDS011;14306;49.942;11.570;2023-05-07T07:18:56;6.93;;;6.20;;
1370;SDS011;14306;49.942;11.570;2023-05-07T07:21:28;7.80;;;7.07;;
1370;SDS011;14306;49.942;11.570;2023-05-07T07:24:00;7.03;;;6.43;;
1370;SDS011;14306;49.942;11.570;2023-05-07T07:26:29;8.57;;;7.17;;
1370;SDS011;14306;49.942;11.570;2023-05-07T07:28:57;7.90;;;7.10;;
1370;SDS011;14306;49.942;11.570;2023-05-07T07:31:28;10.23;;;7.90;;
1370;SDS011;14306;49.942;11.570;2023-05-07T07:33:57;11.13;;;7.90;;
1370;SDS011;14306;49.942;11.570;2023-05-07T07:36:32;9.37;;;8.33;;
1370;SDS011;14306;49.942;11.570;2023-05-07T07:39:13;10.30;;;8.60;;
1370;SDS011;14306;49.942;11.570;2023-05-07T07:41:42;11.03;;;8.80;;
1370;SDS011;14306;49.942;11.570;2023-05-07T07:44:19;8.83;;;7.93;;
1370;SDS011;14306;49.942;11.570;2023-05-07T07:46:50;13.10;;;8.53;;
1370;SDS011;14306;49.942;11.570;2023-05-07T07:49:19;8.10;;;7.10;;
1370;SDS011;14306;49.942;11.570;2023-05-07T07:51:48;15.93;;;7.97;;
1370;SDS011;14306;49.942;11.570;2023-05-07T07:54:19;7.93;;;7.23;;
1370;SDS011;14306;49.942;11.570;2023-05-07T07:56:49;10.37;;;8.20;;
1370;SDS011;14306;49.942;11.570;2023-05-07T07:59:18;8.67;;;7.50;;
1370;SDS011;14306;49.942;11.570;2023-05-07T08:01:48;9.37;;;7.33;;
1370;SDS011;14306;49.942;11.570;2023-05-07T08:04:21;7.27;;;6.57;;
1370;SDS011;14306;49.942;11.570;2023-05-07T08:06:50;8.10;;;7.30;;
1370;SDS011;14306;49.942;11.570;2023-05-07T08:09:22;11.53;;;8.03;;
1370;SDS011;14306;49.942;11.570;2023-05-07T08:11:51;9.83;;;8.13;;
1370;SDS011;14306;49.942;11.570;2023-05-07T08:14:20;11.83;;;8.87;;
1370;SDS011;14306;49.942;11.570;2023-05-07T08:16:49;12.00;;;7.37;;
1370;SDS011;14306;49.942;11.570;2023-05-07T08:19:18;11.90;;;9.00;;
1370;SDS011;14306;49.942;11.570;2023-05-07T08:21:46;10.00;;;7.90;;
1370;SDS011;14306;49.942;11.570;2023-05-07T08:24:17;13.30;;;10.30;;
1370;SDS011;14306;49.942;11.570;2023-05-07T08:26:51;9.47;;;8.40;;
1370;SDS011;14306;49.942;11.570;2023-05-07T08:29:20;11.00;;;9.20;;
1370;SDS011;14306;49.942;11.570;2023-05-07T08:31:48;10.27;;;8.40;;
1370;SDS011;14306;49.942;11.570;2023-05-07T08:34:17;11.80;;;9.47;;
1370;SDS011;14306;49.942;11.570;2023-05-07T08:36:46;12.43;;;9.40;;
1370;SDS011;14306;49.942;11.570;2023-05-07T08:39:15;9.20;;;8.30;;
1370;SDS011;14306;49.942;11.570;2023-05-07T08:41:45;12.37;;;9.70;;
1370;SDS011;14306;49.942;11.570;2023-05-07T08:44:17;14.90;;;10.27;;
1370;SDS011;14306;49.942;11.570;2023-05-07T08:46:50;12.40;;;10.37;;
1370;SDS011;14306;49.942;11.570;2023-05-07T08:49:21;10.97;;;9.50;;
1370;SDS011;14306;49.942;11.570;2023-05-07T08:51:52;12.57;;;9.90;;
1370;SDS011;14306;49.942;11.570;2023-05-07T08:54:21;12.07;;;9.33;;
1370;SDS011;14306;49.942;11.570;2023-05-07T08:56:50;11.57;;;9.70;;
1370;SDS011;14306;49.942;11.570;2023-05-07T08:59:20;10.17;;;8.57;;
1370;SDS011;14306;49.942;11.570;2023-05-07T09:01:49;11.80;;;8.50;;
1370;SDS011;14306;49.942;11.570;2023-05-07T09:04:18;9.40;;;8.37;;
1370;SDS011;14306;49.942;11.570;2023-05-07T09:06:49;8.93;;;8.03;;
1370;SDS011;14306;49.942;11.570;2023-05-07T09:09:18;9.10;;;7.47;;
1370;SDS011;14306;49.942;11.570;2023-05-07T09:11:47;7.03;;;6.33;;
1370;SDS011;14306;49.942;11.570;2023-05-07T09:14:17;6.80;;;6.00;;
1370;SDS011;14306;49.942;11.570;2023-05-07T09:16:51;7.40;;;6.43;;
1370;SDS011;14306;49.942;11.570;2023-05-07T09:19:22;6.47;;;5.87;;
1370;SDS011;14306;49.942;11.570;2023-05-07T09:21:57;6.00;;;5.40;;
1370;SDS011;14306;49.942;11.570;2023-05-07T09:24:28;6.73;;;5.83;;
1370;SDS011;14306;49.942;11.570;2023-05-07T09:27:05;6.53;;;5.73;;
1370;SDS011;14306;49.942;11.570;2023-05-07T09:29:36;7.43;;;5.47;;
1370;SDS011;14306;49.942;11.570;2023-05-07T09:32:07;10.83;;;6.77;;
1370;SDS011;14306;49.942;11.570;2023-05-07T09:34:37;7.33;;;6.30;;
1370;SDS011;14306;49.942;11.570;2023-05-07T09:37:13;8.10;;;6.07;;
1370;SDS011;14306;49.942;11.570;2023-05-07T09:39:42;6.90;;;6.20;;
1370;SDS011;14306;49.942;11.570;2023-05-07T09:42:13;6.60;;;5.70;;
1370;SDS011;14306;49.942;11.570;2023-05-07T09:44:43;9.93;;;6.87;;
1370;SDS011;14306;49.942;11.570;2023-05-07T09:47:14;7.50;;;6.80;;
1370;SDS011;14306;49.942;11.570;2023-05-07T09:49:48;10.50;;;7.63;;
1370;SDS011;14306;49.942;11.570;2023-05-07T09:52:23;8.07;;;6.20;;
1370;SDS011;14306;49.942;11.570;2023-05-07T09:54:56;7.10;;;6.03;;
1370;SDS011;14306;49.942;11.570;2023-05-07T09:57:29;8.70;;;7.37;;
1370;SDS011;14306;49.942;11.570;2023-05-07T10:00:02;6.70;;;6.00;;
1370;SDS011;14306;49.942;11.570;2023-05-07T10:02:36;7.60;;;6.37;;
1370;SDS011;14306;49.942;11.570;2023-05-07T10:05:14;5.80;;;5.30;;
1370;SDS011;14306;49.942;11.570;2023-05-07T10:07:42;6.97;;;6.13;;
1370;SDS011;14306;49.942;11.570;2023-05-07T10:10:12;11.97;;;6.00;;
1370;SDS011;14306;49.942;11.570;2023-05-07T10:12:42;7.37;;;6.57;;
1370;SDS011;14306;49.942;11.570;2023-05-07T10:15:11;6.50;;;5.60;;
1370;SDS011;14306;49.942;11.570;2023-05-07T10:17:43;6.30;;;5.53;;
1370;SDS011;14306;49.942;11.570;2023-05-07T10:20:13;5.90;;;4.97;;
1370;SDS011;14306;49.942;11.570;2023-05-07T10:22:45;7.10;;;6.40;;
1370;SDS011;14306;49.942;11.570;2023-05-07T10:25:18;7.57;;;6.87;;
1370;SDS011;14306;49.942;11.570;2023-05-07T10:27:51;6.87;;;4.90;;
1370;SDS011;14306;49.942;11.570;2023-05-07T10:30:26;7.23;;;6.07;;
1370;SDS011;14306;49.942;11.570;2023-05-07T10:33:09;6.80;;;6.07;;
1370;SDS011;14306;49.942;11.570;2023-05-07T10:35:41;6.17;;;5.67;;
1370;SDS011;14306;49.942;11.570;2023-05-07T10:38:13;7.53;;;5.80;;
1370;SDS011;14306;49.942;11.570;2023-05-07T10:40:43;5.73;;;5.23;;
1370;SDS011;14306;49.942;11.570;2023-05-07T10:43:16;6.57;;;5.17;;
1370;SDS011;14306;49.942;11.570;2023-05-07T10:51:42;5.63;;;5.13;;
1370;SDS011;14306;49.942;11.570;2023-05-07T10:57:41;6.20;;;5.17;;
1370;SDS011;14306;49.942;11.570;2023-05-07T11:03:12;6.20;;;5.60;;
1370;SDS011;14306;49.942;11.570;2023-05-07T11:05:44;5.87;;;5.27;;
1370;SDS011;14306;49.942;11.570;2023-05-07T11:08:16;5.87;;;5.27;;
1370;SDS011;14306;49.942;11.570;2023-05-07T11:10:49;4.17;;;3.73;;
1370;SDS011;14306;49.942;11.570;2023-05-07T11:16:17;4.23;;;3.80;;
1370;SDS011;14306;49.942;11.570;2023-05-07T11:18:48;5.20;;;4.53;;
1370;SDS011;14306;49.942;11.570;2023-05-07T11:21:32;7.50;;;5.80;;
1370;SDS011;14306;49.942;11.570;2023-05-07T11:24:04;5.67;;;5.07;;
1370;SDS011;14306;49.942;11.570;2023-05-07T11:26:42;7.33;;;4.30;;
1370;SDS011;14306;49.942;11.570;2023-05-07T11:29:14;5.10;;;3.90;;
1370;SDS011;14306;49.942;11.570;2023-05-07T11:31:51;5.60;;;3.80;;
1370;SDS011;14306;49.942;11.570;2023-05-07T11:34:25;3.93;;;3.47;;
1370;SDS011;14306;49.942;11.570;2023-05-07T11:36:59;6.40;;;3.50;;
1370;SDS011;14306;49.942;11.570;2023-05-07T11:39:33;6.00;;;5.00;;
1370;SDS011;14306;49.942;11.570;2023-05-07T11:42:06;5.80;;;4.20;;
1370;SDS011;14306;49.942;11.570;2023-05-07T11:44:41;6.60;;;5.00;;
1370;SDS011;14306;49.942;11.570;2023-05-07T11:47:17;5.60;;;4.90;;
1370;SDS011;14306;49.942;11.570;2023-05-07T11:49:47;4.93;;;4.00;;
1370;SDS011;14306;49.942;11.570;2023-05-07T11:52:21;4.93;;;4.40;;
1370;SDS011;14306;49.942;11.570;2023-05-07T11:54:54;4.23;;;3.40;;
1370;SDS011;14306;49.942;11.570;2023-05-07T11:57:24;3.73;;;3.43;;
1370;SDS011;14306;49.942;11.570;2023-05-07T11:59:55;3.93;;;3.63;;
1370;SDS011;14306;49.942;11.570;2023-05-07T12:02:24;4.23;;;3.60;;
1370;SDS011;14306;49.942;11.570;2023-05-07T12:05:02;4.20;;;3.80;;
1370;SDS011;14306;49.942;11.570;2023-05-07T12:07:34;3.70;;;3.33;;
1370;SDS011;14306;49.942;11.570;2023-05-07T12:10:04;4.03;;;3.63;;
1370;SDS011;14306;49.942;11.570;2023-05-07T12:12:40;3.77;;;3.40;;
1370;SDS011;14306;49.942;11.570;2023-05-07T12:15:09;3.13;;;2.83;;
1370;SDS011;14306;49.942;11.570;2023-05-07T12:17:44;2.50;;;2.30;;
1370;SDS011;14306;49.942;11.570;2023-05-07T12:20:14;3.97;;;3.13;;
1370;SDS011;14306;49.942;11.570;2023-05-07T12:22:47;5.20;;;3.57;;
1370;SDS011;14306;49.942;11.570;2023-05-07T12:25:19;3.80;;;3.40;;
1370;SDS011;14306;49.942;11.570;2023-05-07T12:27:51;3.37;;;2.80;;
1370;SDS011;14306;49.942;11.570;2023-05-07T12:30:28;3.80;;;3.27;;
1370;SDS011;14306;49.942;11.570;2023-05-07T12:32:58;3.13;;;2.90;;
1370;SDS011;14306;49.942;11.570;2023-05-07T12:35:27;3.80;;;3.50;;
1370;SDS011;14306;49.942;11.570;2023-05-07T12:37:58;5.50;;;3.13;;
1370;SDS011;14306;49.942;11.570;2023-05-07T12:40:37;6.00;;;3.53;;
1370;SDS011;14306;49.942;11.570;2023-05-07T12:43:15;4.30;;;3.90;;
1370;SDS011;14306;49.942;11.570;2023-05-07T12:45:46;3.83;;;3.03;;
1370;SDS011;14306;49.942;11.570;2023-05-07T12:48:16;4.60;;;3.80;;
1370;SDS011;14306;49.942;11.570;2023-05-07T12:50:49;4.30;;;3.33;;
1370;SDS011;14306;49.942;11.570;2023-05-07T12:53:20;4.40;;;3.60;;
1370;SDS011;14306;49.942;11.570;2023-05-07T12:55:53;3.73;;;3.20;;
1370;SDS011;14306;49.942;11.570;2023-05-07T12:58:26;4.27;;;3.10;;
1370;SDS011;14306;49.942;11.570;2023-05-07T13:00:57;3.50;;;3.20;;
1370;SDS011;14306;49.942;11.570;2023-05-07T13:03:29;6.00;;;3.60;;
1370;SDS011;14306;49.942;11.570;2023-05-07T13:06:00;5.60;;;3.77;;
1370;SDS011;14306;49.942;11.570;2023-05-07T13:08:36;4.57;;;4.17;;
1370;SDS011;14306;49.942;11.570;2023-05-07T13:11:07;4.30;;;3.87;;
1370;SDS011;14306;49.942;11.570;2023-05-07T13:13:38;13.43;;;3.73;;
1370;SDS011;14306;49.942;11.570;2023-05-07T13:16:11;4.10;;;3.73;;
1370;SDS011;14306;49.942;11.570;2023-05-07T13:18:40;4.20;;;3.90;;
1370;SDS011;14306;49.942;11.570;2023-05-07T13:21:13;4.77;;;3.67;;
1370;SDS011;14306;49.942;11.570;2023-05-07T13:23:46;4.20;;;3.77;;
1370;SDS011;14306;49.942;11.570;2023-05-07T13:26:16;4.00;;;3.60;;
1370;SDS011;14306;49.942;11.570;2023-05-07T13:28:52;6.00;;;3.43;;
1370;SDS011;14306;49.942;11.570;2023-05-07T13:31:22;4.63;;;3.83;;
1370;SDS011;14306;49.942;11.570;2023-05-07T13:33:54;4.40;;;3.27;;
1370;SDS011;14306;49.942;11.570;2023-05-07T13:36:34;5.47;;;3.70;;
1370;SDS011;14306;49.942;11.570;2023-05-07T13:39:10;4.10;;;3.70;;
1370;SDS011;14306;49.942;11.570;2023-05-07T13:41:40;4.40;;;3.37;;
1370;SDS011;14306;49.942;11.570;2023-05-07T13:44:11;4.03;;;3.67;;
1370;SDS011;14306;49.942;11.570;2023-05-07T13:46:44;5.00;;;3.77;;
1370;SDS011;14306;49.942;11.570;2023-05-07T13:49:18;4.37;;;3.23;;
1370;SDS011;14306;49.942;11.570;2023-05-07T13:51:49;4.63;;;3.83;;
1370;SDS011;14306;49.942;11.570;2023-05-07T13:54:21;3.47;;;3.17;;
1370;SDS011;14306;49.942;11.570;2023-05-07T13:56:51;3.90;;;3.60;;
1370;SDS011;14306;49.942;11.570;2023-05-07T13:59:23;4.10;;;3.50;;
1370;SDS011;14306;49.942;11.570;2023-05-07T14:01:52;3.60;;;3.30;;
1370;SDS011;14306;49.942;11.570;2023-05-07T14:04:21;6.97;;;3.80;;
1370;SDS011;14306;49.942;11.570;2023-05-07T14:06:49;5.67;;;4.27;;
1370;SDS011;14306;49.942;11.570;2023-05-07T14:09:20;4.00;;;3.70;;
1370;SDS011;14306;49.942;11.570;2023-05-07T14:11:48;3.83;;;3.43;;
1370;SDS011;14306;49.942;11.570;2023-05-07T14:14:18;3.47;;;3.17;;
1370;SDS011;14306;49.942;11.570;2023-05-07T14:16:47;3.57;;;3.27;;
1370;SDS011;14306;49.942;11.570;2023-05-07T14:19:18;4.90;;;4.40;;
1370;SDS011;14306;49.942;11.570;2023-05-07T14:21:50;4.47;;;4.07;;
1370;SDS011;14306;49.942;11.570;2023-05-07T14:24:20;4.37;;;3.67;;
1370;SDS011;14306;49.942;11.570;2023-05-07T14:27:02;4.40;;;4.00;;
1370;SDS011;14306;49.942;11.570;2023-05-07T14:29:32;8.17;;;4.30;;
1370;SDS011;14306;49.942;11.570;2023-05-07T14:32:03;5.37;;;4.43;;
1370;SDS011;14306;49.942;11.570;2023-05-07T14:34:32;5.00;;;4.50;;
1370;SDS011;14306;49.942;11.570;2023-05-07T14:37:04;5.93;;;4.40;;
1370;SDS011;14306;49.942;11.570;2023-05-07T14:39:34;5.60;;;4.80;;
1370;SDS011;14306;49.942;11.570;2023-05-07T14:42:04;6.20;;;4.67;;
1370;SDS011;14306;49.942;11.570;2023-05-07T14:44:34;7.00;;;5.23;;
1370;SDS011;14306;49.942;11.570;2023-05-07T14:47:03;5.37;;;4.83;;
1370;SDS011;14306;49.942;11.570;2023-05-07T14:49:33;6.63;;;4.90;;
1370;SDS011;14306;49.942;11.570;2023-05-07T14:52:01;5.80;;;5.20;;
1370;SDS011;14306;49.942;11.570;2023-05-07T14:54:34;6.20;;;5.13;;
1370;SDS011;14306;49.942;11.570;2023-05-07T14:57:04;7.53;;;5.60;;
1370;SDS011;14306;49.942;11.570;2023-05-07T14:59:35;7.00;;;5.90;;
1370;SDS011;14306;49.942;11.570;2023-05-07T15:02:03;8.07;;;4.47;;
1370;SDS011;14306;49.942;11.570;2023-05-07T15:04:34;5.77;;;5.13;;
1370;SDS011;14306;49.942;11.570;2023-05-07T15:07:05;6.40;;;5.00;;
1370;SDS011;14306;49.942;11.570;2023-05-07T15:09:38;6.27;;;5.03;;
1370;SDS011;14306;49.942;11.570;2023-05-07T15:12:07;7.83;;;5.80;;
1370;SDS011;14306;49.942;11.570;2023-05-07T15:14:36;7.23;;;6.07;;
1370;SDS011;14306;49.942;11.570;2023-05-07T15:17:05;5.97;;;5.37;;
1370;SDS011;14306;49.942;11.570;2023-05-07T15:19:34;7.50;;;5.90;;
1370;SDS011;14306;49.942;11.570;2023-05-07T15:22:04;6.50;;;5.00;;
1370;SDS011;14306;49.942;11.570;2023-05-07T15:24:33;8.40;;;6.40;;
1370;SDS011;14306;49.942;11.570;2023-05-07T15:27:04;5.90;;;5.30;;